Venango Regional Airport
KFKL : now visible

Airfield :











YOU CAN JOIN US ON...

 
LOGIN :

Register | Disclaimer

   EN    FR    IT 

 









Legend :    VFR   Marginal VFR   IFR   Intensive IFR   Very Intensive IFR
Visi :
Ceiling :
>= 8 km
>= 3000ft
5 to 8 km
1000 to 3000 ft
1500m to 5 km
500 to 1000 ft
800 to 1500m
200 to 500 ft
< 800m
< 200 ft
Symbols :   Thunderstorms  Fog  Heavy snow  Heavy precipitations  Wind > 20 kt






- Airport Elevation : 1540 ft


KFKL - Venango Regional

CURRENT METAR :
  • 271442Z AUTO 16004KT 10SM SCT008 BKN012 OVC080 07/05 A3024 RMK AO2

EXPIRED METARs :
  • 271356Z AUTO 00000KT 10SM SCT006 OVC080 06/04 A3026 RMK AO2 SLP258 T00610044
  • 271332Z AUTO 00000KT 10SM BKN006 OVC085 06/05 A3026 RMK AO2
  • 271323Z AUTO 00000KT 10SM SCT006 OVC085 06/04 A3026 RMK AO2
  • 271256Z AUTO 00000KT 10SM OVC085 06/04 A3026 RMK AO2 SLP257 T00560044
  • 271156Z AUTO 00000KT 6SM BR OVC075 06/05 A3024 RMK AO2 SLP250 7//// T00560050 10056 20050 50005

TAF KFKL
Valid from the 27 at 12:00 until the 28 at 12:00 UTC


271143Z 2712/2812 VRB02KT P6SM SCT015 OVC060
TEMPO 2713/2717 BKN015
FM271700 28003KT P6SM OVC025
FM272200 28005KT 6SM -RA BR SCT008 OVC015
FM280300 24003KT 5SM -DZ BR OVC005
KZOB FIR / North America



MET'MAP, your aeronautical weather chart ! - Copyright ORBIFLY December 2007 - Disclaimer

ORBIFLY MET'MAP TEAM :

Programming & Development : Alexandra Zaïnal
Concept & original design : Baudouin d'Aumeries
Assistance for programming : Marc-Olivier Méhu
Technical & hardware support : Manuel Goepfert

Contact : metmap@orbifly.com




SOURCES & CREDITS :

   NOAA       Earth
Advisory